UWUU

Ufa International

Airport
ICAO code
UWUU
Summary
ICAO Region
EUR
ICAO Territory
Location

Ufa, Bashkortostan,

Coordinates
54° 33' 55" N , 55° 53' 4" E
Metar
Observation
UWUU 241630Z VRB01MPS CAVOK 16/11 Q1008 R14R/0///60 NOSIG
Station
Ufa
Date/Time
2022-09-24 16:30:00
Lowest cloud amount
clouds and visibility OK
Temperature
16°C
Dew point
11°C
Humidity
72%
QNH
1008 hPa
Weather condition
n/a

Description

Ufa International Airport is the primary airport serving Ufa, the capital of Bashkortostan, Russia.

Climatology

Runways

Designator Length Width Surface Rops
14/32 645 96 GRE No/No
1/19 675 105 GRE No/No
5/23 725 91 GRE No/No
14L/32R 2513 50 CON Yes/Yes
14R/32L 3761 60 CON Yes/Yes

Airport map

Aerial View

SKYbrary Partners:

Safety knowledge contributed by: